Decoded Metar for EPBY (BYDGOSZCZ in POLAND) (IATA:N/A) | Meteo·Mobile Aviation Weather
aviador You're here:

EPBY Decoded Metar

BYDGOSZCZ in POLAND
Report Time2019-01-23 07:30:00
UTC Time2019-01-23 07:59:52
Flight Rules ifr IFR
Wind120° at 05 kt
W.Decomp.*RWY 08: 4.1 kt HW 2.9 kt RCW
W.Rank120° ranks 27
Current wind is below 120° avg. (5.3)
Visibility3000 m
Phenomena:Mist
Clouds:Broken 022 Hf
Expected CloudBase > 800 ft AGL from Temp-Dew spread
Ceiling2,200 ft
Temp-8°C (ISA -23)
Dew Point-10°C (86% RH)
AAT-12.9°C
QNH1009 hPa
Density Alt-2,392 ft
Elevation233 ft
Report Wrong Elevation
Raw Report
METAR EPBY 230730Z 12005KT 3000 BR BKN022 M08/M10 Q1009 =

Extra information for EPBY:More info

Metar Taf Metar & Taf Last 4 Metars F.Rules Stats Wind Profile Meteogram Temp Stats Airport Information Weather charts Add Link Nearby VenuesMetar ALERT Operation Metar Decoded Social comments